sensor_id;sensor_type;location;lat;lon;timestamp;P1;durP1;ratioP1;P2;durP2;ratioP2
66272;SDS011;58450;52.150;4.466;2023-03-01T00:01:13;14.40;;;9.13;;
66272;SDS011;58450;52.150;4.466;2023-03-01T00:03:44;14.20;;;8.90;;
66272;SDS011;58450;52.150;4.466;2023-03-01T00:06:12;14.32;;;8.70;;
66272;SDS011;58450;52.150;4.466;2023-03-01T00:08:40;16.33;;;8.80;;
66272;SDS011;58450;52.150;4.466;2023-03-01T00:11:08;14.93;;;8.88;;
66272;SDS011;58450;52.150;4.466;2023-03-01T00:13:42;13.93;;;9.68;;
66272;SDS011;58450;52.150;4.466;2023-03-01T00:16:12;15.90;;;9.43;;
66272;SDS011;58450;52.150;4.466;2023-03-01T00:18:43;15.98;;;10.23;;
66272;SDS011;58450;52.150;4.466;2023-03-01T00:21:10;13.52;;;9.80;;
66272;SDS011;58450;52.150;4.466;2023-03-01T00:23:38;15.05;;;9.60;;
66272;SDS011;58450;52.150;4.466;2023-03-01T00:26:07;16.42;;;9.93;;
66272;SDS011;58450;52.150;4.466;2023-03-01T00:28:39;16.23;;;9.23;;
66272;SDS011;58450;52.150;4.466;2023-03-01T00:31:07;14.23;;;9.30;;
66272;SDS011;58450;52.150;4.466;2023-03-01T00:33:38;17.50;;;10.20;;
66272;SDS011;58450;52.150;4.466;2023-03-01T00:36:06;15.98;;;10.50;;
66272;SDS011;58450;52.150;4.466;2023-03-01T00:38:35;18.63;;;11.45;;
66272;SDS011;58450;52.150;4.466;2023-03-01T00:41:04;18.67;;;11.45;;
66272;SDS011;58450;52.150;4.466;2023-03-01T00:43:32;16.40;;;10.55;;
66272;SDS011;58450;52.150;4.466;2023-03-01T00:46:04;16.27;;;10.05;;
66272;SDS011;58450;52.150;4.466;2023-03-01T00:48:33;19.85;;;11.88;;
66272;SDS011;58450;52.150;4.466;2023-03-01T00:51:04;20.13;;;11.85;;
66272;SDS011;58450;52.150;4.466;2023-03-01T00:53:34;18.15;;;11.25;;
66272;SDS011;58450;52.150;4.466;2023-03-01T00:56:03;21.13;;;12.50;;
66272;SDS011;58450;52.150;4.466;2023-03-01T00:58:33;19.17;;;11.43;;
66272;SDS011;58450;52.150;4.466;2023-03-01T01:01:08;19.67;;;11.98;;
66272;SDS011;58450;52.150;4.466;2023-03-01T01:03:43;19.00;;;11.90;;
66272;SDS011;58450;52.150;4.466;2023-03-01T01:06:13;20.80;;;11.85;;
66272;SDS011;58450;52.150;4.466;2023-03-01T01:08:42;19.90;;;12.02;;
66272;SDS011;58450;52.150;4.466;2023-03-01T01:11:10;18.95;;;12.18;;
66272;SDS011;58450;52.150;4.466;2023-03-01T01:13:38;21.13;;;12.88;;
66272;SDS011;58450;52.150;4.466;2023-03-01T01:16:08;19.88;;;12.48;;
66272;SDS011;58450;52.150;4.466;2023-03-01T01:18:36;21.15;;;12.32;;
66272;SDS011;58450;52.150;4.466;2023-03-01T01:21:04;20.73;;;12.38;;
66272;SDS011;58450;52.150;4.466;2023-03-01T01:23:34;20.88;;;11.75;;
66272;SDS011;58450;52.150;4.466;2023-03-01T01:26:04;22.45;;;13.10;;
66272;SDS011;58450;52.150;4.466;2023-03-01T01:28:34;21.30;;;13.27;;
66272;SDS011;58450;52.150;4.466;2023-03-01T01:31:02;22.48;;;12.60;;
66272;SDS011;58450;52.150;4.466;2023-03-01T01:33:32;20.33;;;12.32;;
66272;SDS011;58450;52.150;4.466;2023-03-01T01:36:01;21.67;;;12.90;;
66272;SDS011;58450;52.150;4.466;2023-03-01T01:38:28;19.92;;;11.95;;
66272;SDS011;58450;52.150;4.466;2023-03-01T01:40:56;20.40;;;12.15;;
66272;SDS011;58450;52.150;4.466;2023-03-01T01:43:25;22.35;;;13.00;;
66272;SDS011;58450;52.150;4.466;2023-03-01T01:45:55;21.83;;;13.30;;
66272;SDS011;58450;52.150;4.466;2023-03-01T01:48:29;23.80;;;13.88;;
66272;SDS011;58450;52.150;4.466;2023-03-01T01:51:09;23.35;;;14.68;;
66272;SDS011;58450;52.150;4.466;2023-03-01T01:53:42;21.33;;;13.75;;
66272;SDS011;58450;52.150;4.466;2023-03-01T01:56:15;24.23;;;14.27;;
66272;SDS011;58450;52.150;4.466;2023-03-01T01:58:45;24.20;;;14.10;;
66272;SDS011;58450;52.150;4.466;2023-03-01T02:01:15;22.42;;;14.02;;
66272;SDS011;58450;52.150;4.466;2023-03-01T02:03:44;23.05;;;13.15;;
66272;SDS011;58450;52.150;4.466;2023-03-01T02:06:17;24.30;;;14.60;;
66272;SDS011;58450;52.150;4.466;2023-03-01T02:08:55;22.67;;;13.73;;
66272;SDS011;58450;52.150;4.466;2023-03-01T02:13:58;24.48;;;13.73;;
66272;SDS011;58450;52.150;4.466;2023-03-01T02:16:25;22.60;;;13.38;;
66272;SDS011;58450;52.150;4.466;2023-03-01T02:18:56;23.83;;;13.68;;
66272;SDS011;58450;52.150;4.466;2023-03-01T02:21:30;24.20;;;13.88;;
66272;SDS011;58450;52.150;4.466;2023-03-01T02:26:50;27.15;;;15.10;;
66272;SDS011;58450;52.150;4.466;2023-03-01T02:29:24;27.48;;;14.75;;
66272;SDS011;58450;52.150;4.466;2023-03-01T02:31:55;25.65;;;14.68;;
66272;SDS011;58450;52.150;4.466;2023-03-01T02:34:27;26.27;;;15.20;;
66272;SDS011;58450;52.150;4.466;2023-03-01T02:36:59;25.23;;;16.17;;
66272;SDS011;58450;52.150;4.466;2023-03-01T02:39:32;25.73;;;15.55;;
66272;SDS011;58450;52.150;4.466;2023-03-01T02:42:08;26.52;;;15.65;;
66272;SDS011;58450;52.150;4.466;2023-03-01T02:44:42;25.65;;;15.45;;
66272;SDS011;58450;52.150;4.466;2023-03-01T02:47:10;27.95;;;15.93;;
66272;SDS011;58450;52.150;4.466;2023-03-01T02:49:37;25.40;;;15.75;;
66272;SDS011;58450;52.150;4.466;2023-03-01T02:52:13;27.98;;;16.63;;
66272;SDS011;58450;52.150;4.466;2023-03-01T02:54:56;30.40;;;17.13;;
66272;SDS011;58450;52.150;4.466;2023-03-01T02:57:30;26.35;;;16.25;;
66272;SDS011;58450;52.150;4.466;2023-03-01T03:00:03;27.08;;;15.98;;
66272;SDS011;58450;52.150;4.466;2023-03-01T03:02:36;30.83;;;17.83;;
66272;SDS011;58450;52.150;4.466;2023-03-01T03:05:05;30.10;;;17.65;;
66272;SDS011;58450;52.150;4.466;2023-03-01T03:07:36;28.20;;;17.52;;
66272;SDS011;58450;52.150;4.466;2023-03-01T03:10:07;31.65;;;18.35;;
66272;SDS011;58450;52.150;4.466;2023-03-01T03:12:38;34.45;;;19.90;;
66272;SDS011;58450;52.150;4.466;2023-03-01T03:15:08;37.15;;;19.15;;
66272;SDS011;58450;52.150;4.466;2023-03-01T03:17:38;30.00;;;17.05;;
66272;SDS011;58450;52.150;4.466;2023-03-01T03:20:08;31.92;;;17.83;;
66272;SDS011;58450;52.150;4.466;2023-03-01T03:22:39;29.52;;;17.95;;
66272;SDS011;58450;52.150;4.466;2023-03-01T03:25:07;30.52;;;17.52;;
66272;SDS011;58450;52.150;4.466;2023-03-01T03:27:39;28.60;;;17.02;;
66272;SDS011;58450;52.150;4.466;2023-03-01T03:30:12;29.48;;;17.33;;
66272;SDS011;58450;52.150;4.466;2023-03-01T03:32:45;28.17;;;16.40;;
66272;SDS011;58450;52.150;4.466;2023-03-01T03:35:18;30.38;;;16.98;;
66272;SDS011;58450;52.150;4.466;2023-03-01T03:37:47;28.65;;;16.50;;
66272;SDS011;58450;52.150;4.466;2023-03-01T03:43:01;28.60;;;16.63;;
66272;SDS011;58450;52.150;4.466;2023-03-01T03:45:31;31.27;;;18.13;;
66272;SDS011;58450;52.150;4.466;2023-03-01T03:47:59;29.90;;;17.75;;
66272;SDS011;58450;52.150;4.466;2023-03-01T03:50:27;32.47;;;18.88;;
66272;SDS011;58450;52.150;4.466;2023-03-01T03:52:55;31.33;;;17.58;;
66272;SDS011;58450;52.150;4.466;2023-03-01T03:55:22;32.08;;;18.17;;
66272;SDS011;58450;52.150;4.466;2023-03-01T03:57:53;30.55;;;17.67;;
66272;SDS011;58450;52.150;4.466;2023-03-01T04:00:23;32.53;;;18.08;;
66272;SDS011;58450;52.150;4.466;2023-03-01T04:02:52;31.98;;;18.45;;
66272;SDS011;58450;52.150;4.466;2023-03-01T04:05:22;30.65;;;17.90;;
66272;SDS011;58450;52.150;4.466;2023-03-01T04:07:50;31.02;;;18.00;;
66272;SDS011;58450;52.150;4.466;2023-03-01T04:10:27;30.77;;;18.17;;
66272;SDS011;58450;52.150;4.466;2023-03-01T04:12:55;31.10;;;18.30;;
66272;SDS011;58450;52.150;4.466;2023-03-01T04:15:23;31.45;;;18.42;;
66272;SDS011;58450;52.150;4.466;2023-03-01T04:17:55;31.60;;;17.70;;
66272;SDS011;58450;52.150;4.466;2023-03-01T04:20:24;34.33;;;18.63;;
66272;SDS011;58450;52.150;4.466;2023-03-01T04:22:56;34.22;;;18.17;;
66272;SDS011;58450;52.150;4.466;2023-03-01T04:25:34;35.38;;;19.50;;
66272;SDS011;58450;52.150;4.466;2023-03-01T04:28:01;32.67;;;18.70;;
66272;SDS011;58450;52.150;4.466;2023-03-01T04:30:29;31.30;;;18.35;;
66272;SDS011;58450;52.150;4.466;2023-03-01T04:33:03;33.33;;;18.15;;
66272;SDS011;58450;52.150;4.466;2023-03-01T04:35:31;33.33;;;18.77;;
66272;SDS011;58450;52.150;4.466;2023-03-01T04:38:00;32.88;;;18.42;;
66272;SDS011;58450;52.150;4.466;2023-03-01T04:40:27;31.13;;;18.48;;
66272;SDS011;58450;52.150;4.466;2023-03-01T04:42:55;31.63;;;18.58;;
66272;SDS011;58450;52.150;4.466;2023-03-01T04:45:22;33.63;;;20.15;;
66272;SDS011;58450;52.150;4.466;2023-03-01T04:47:50;32.60;;;19.13;;
66272;SDS011;58450;52.150;4.466;2023-03-01T04:50:19;37.30;;;20.98;;
66272;SDS011;58450;52.150;4.466;2023-03-01T04:52:49;34.33;;;19.77;;
66272;SDS011;58450;52.150;4.466;2023-03-01T04:55:16;38.00;;;20.40;;
66272;SDS011;58450;52.150;4.466;2023-03-01T04:57:44;36.60;;;20.77;;
66272;SDS011;58450;52.150;4.466;2023-03-01T05:00:12;35.63;;;20.10;;
66272;SDS011;58450;52.150;4.466;2023-03-01T05:02:48;35.35;;;19.77;;
66272;SDS011;58450;52.150;4.466;2023-03-01T05:05:21;33.42;;;19.67;;
66272;SDS011;58450;52.150;4.466;2023-03-01T05:07:53;35.27;;;20.50;;
66272;SDS011;58450;52.150;4.466;2023-03-01T05:10:23;36.72;;;20.88;;
66272;SDS011;58450;52.150;4.466;2023-03-01T05:12:52;33.05;;;19.38;;
66272;SDS011;58450;52.150;4.466;2023-03-01T05:15:19;35.83;;;20.73;;
66272;SDS011;58450;52.150;4.466;2023-03-01T05:17:51;39.95;;;21.52;;
66272;SDS011;58450;52.150;4.466;2023-03-01T05:20:21;37.10;;;21.10;;
66272;SDS011;58450;52.150;4.466;2023-03-01T05:22:49;35.40;;;20.17;;
66272;SDS011;58450;52.150;4.466;2023-03-01T05:25:17;36.83;;;20.85;;
66272;SDS011;58450;52.150;4.466;2023-03-01T05:27:47;35.58;;;21.08;;
66272;SDS011;58450;52.150;4.466;2023-03-01T05:30:15;36.97;;;21.05;;
66272;SDS011;58450;52.150;4.466;2023-03-01T05:32:44;36.13;;;20.98;;
66272;SDS011;58450;52.150;4.466;2023-03-01T05:35:14;36.47;;;20.65;;
66272;SDS011;58450;52.150;4.466;2023-03-01T05:37:46;38.60;;;19.92;;
66272;SDS011;58450;52.150;4.466;2023-03-01T05:40:16;38.47;;;21.73;;
66272;SDS011;58450;52.150;4.466;2023-03-01T05:42:47;39.92;;;21.00;;
66272;SDS011;58450;52.150;4.466;2023-03-01T05:45:17;40.03;;;21.40;;
66272;SDS011;58450;52.150;4.466;2023-03-01T05:47:45;37.00;;;20.45;;
66272;SDS011;58450;52.150;4.466;2023-03-01T05:50:16;36.03;;;20.40;;
66272;SDS011;58450;52.150;4.466;2023-03-01T05:52:48;36.30;;;21.67;;
66272;SDS011;58450;52.150;4.466;2023-03-01T05:55:18;41.83;;;21.42;;
66272;SDS011;58450;52.150;4.466;2023-03-01T05:57:48;39.28;;;22.10;;
66272;SDS011;58450;52.150;4.466;2023-03-01T06:00:16;39.15;;;21.90;;
66272;SDS011;58450;52.150;4.466;2023-03-01T06:02:49;37.80;;;21.35;;
66272;SDS011;58450;52.150;4.466;2023-03-01T06:05:17;39.17;;;21.88;;
66272;SDS011;58450;52.150;4.466;2023-03-01T06:07:45;35.85;;;19.92;;
66272;SDS011;58450;52.150;4.466;2023-03-01T06:10:14;35.47;;;20.05;;
66272;SDS011;58450;52.150;4.466;2023-03-01T06:12:42;34.80;;;20.10;;
66272;SDS011;58450;52.150;4.466;2023-03-01T06:15:11;33.95;;;19.77;;
66272;SDS011;58450;52.150;4.466;2023-03-01T06:17:41;36.95;;;20.13;;
66272;SDS011;58450;52.150;4.466;2023-03-01T06:20:11;34.97;;;19.77;;
66272;SDS011;58450;52.150;4.466;2023-03-01T06:22:42;36.92;;;20.75;;
66272;SDS011;58450;52.150;4.466;2023-03-01T06:25:11;36.80;;;20.35;;
66272;SDS011;58450;52.150;4.466;2023-03-01T06:27:43;36.00;;;19.98;;
66272;SDS011;58450;52.150;4.466;2023-03-01T06:30:12;35.10;;;19.60;;
66272;SDS011;58450;52.150;4.466;2023-03-01T06:32:43;34.05;;;19.00;;
66272;SDS011;58450;52.150;4.466;2023-03-01T06:35:11;35.90;;;19.48;;
66272;SDS011;58450;52.150;4.466;2023-03-01T06:37:43;34.05;;;19.80;;
66272;SDS011;58450;52.150;4.466;2023-03-01T06:40:12;34.50;;;20.40;;
66272;SDS011;58450;52.150;4.466;2023-03-01T06:42:43;38.47;;;21.67;;
66272;SDS011;58450;52.150;4.466;2023-03-01T06:45:15;36.70;;;21.15;;
66272;SDS011;58450;52.150;4.466;2023-03-01T06:47:45;40.63;;;22.08;;
66272;SDS011;58450;52.150;4.466;2023-03-01T06:50:13;37.70;;;21.33;;
66272;SDS011;58450;52.150;4.466;2023-03-01T06:52:42;38.70;;;21.05;;
66272;SDS011;58450;52.150;4.466;2023-03-01T06:55:10;36.45;;;20.50;;
66272;SDS011;58450;52.150;4.466;2023-03-01T06:57:39;36.30;;;21.02;;
66272;SDS011;58450;52.150;4.466;2023-03-01T07:00:09;36.53;;;20.75;;
66272;SDS011;58450;52.150;4.466;2023-03-01T07:02:37;36.42;;;20.42;;
66272;SDS011;58450;52.150;4.466;2023-03-01T07:05:05;37.67;;;21.50;;
66272;SDS011;58450;52.150;4.466;2023-03-01T07:07:33;35.85;;;20.70;;
66272;SDS011;58450;52.150;4.466;2023-03-01T07:10:01;35.67;;;20.50;;
66272;SDS011;58450;52.150;4.466;2023-03-01T07:12:28;35.15;;;20.38;;
66272;SDS011;58450;52.150;4.466;2023-03-01T07:14:56;36.17;;;20.73;;
66272;SDS011;58450;52.150;4.466;2023-03-01T07:17:24;36.80;;;21.52;;
66272;SDS011;58450;52.150;4.466;2023-03-01T07:19:52;39.75;;;23.08;;
66272;SDS011;58450;52.150;4.466;2023-03-01T07:22:19;36.47;;;21.40;;
66272;SDS011;58450;52.150;4.466;2023-03-01T07:24:47;36.95;;;22.65;;
66272;SDS011;58450;52.150;4.466;2023-03-01T07:27:14;34.10;;;21.58;;
66272;SDS011;58450;52.150;4.466;2023-03-01T07:29:42;36.67;;;21.67;;
66272;SDS011;58450;52.150;4.466;2023-03-01T07:32:09;33.92;;;20.40;;
66272;SDS011;58450;52.150;4.466;2023-03-01T07:34:39;33.72;;;20.63;;
66272;SDS011;58450;52.150;4.466;2023-03-01T07:37:06;35.15;;;20.88;;
66272;SDS011;58450;52.150;4.466;2023-03-01T07:39:34;32.10;;;20.05;;
66272;SDS011;58450;52.150;4.466;2023-03-01T07:42:01;33.80;;;20.92;;
66272;SDS011;58450;52.150;4.466;2023-03-01T07:44:29;36.53;;;21.52;;
66272;SDS011;58450;52.150;4.466;2023-03-01T07:46:56;32.45;;;20.88;;
66272;SDS011;58450;52.150;4.466;2023-03-01T07:49:23;34.28;;;20.80;;
66272;SDS011;58450;52.150;4.466;2023-03-01T07:51:53;33.22;;;20.70;;
66272;SDS011;58450;52.150;4.466;2023-03-01T07:54:21;29.35;;;19.50;;
66272;SDS011;58450;52.150;4.466;2023-03-01T07:56:49;32.78;;;21.13;;
66272;SDS011;58450;52.150;4.466;2023-03-01T07:59:16;28.98;;;18.95;;
66272;SDS011;58450;52.150;4.466;2023-03-01T08:01:44;27.83;;;20.50;;
66272;SDS011;58450;52.150;4.466;2023-03-01T08:04:11;28.45;;;19.55;;
66272;SDS011;58450;52.150;4.466;2023-03-01T08:06:39;27.80;;;19.05;;
66272;SDS011;58450;52.150;4.466;2023-03-01T08:09:08;25.20;;;17.80;;
66272;SDS011;58450;52.150;4.466;2023-03-01T08:11:35;24.85;;;17.90;;
66272;SDS011;58450;52.150;4.466;2023-03-01T08:14:03;22.85;;;16.88;;
66272;SDS011;58450;52.150;4.466;2023-03-01T08:16:30;22.65;;;16.08;;
66272;SDS011;58450;52.150;4.466;2023-03-01T08:19:02;19.65;;;15.10;;
66272;SDS011;58450;52.150;4.466;2023-03-01T08:21:31;19.10;;;14.43;;
66272;SDS011;58450;52.150;4.466;2023-03-01T08:24:00;17.27;;;13.40;;
66272;SDS011;58450;52.150;4.466;2023-03-01T08:26:29;17.05;;;12.93;;
66272;SDS011;58450;52.150;4.466;2023-03-01T08:28:57;15.68;;;12.32;;
66272;SDS011;58450;52.150;4.466;2023-03-01T08:31:26;17.10;;;12.70;;
66272;SDS011;58450;52.150;4.466;2023-03-01T08:33:57;14.75;;;11.25;;
66272;SDS011;58450;52.150;4.466;2023-03-01T08:36:29;14.93;;;11.20;;
66272;SDS011;58450;52.150;4.466;2023-03-01T08:38:59;15.27;;;11.02;;
66272;SDS011;58450;52.150;4.466;2023-03-01T08:41:27;14.27;;;10.85;;
66272;SDS011;58450;52.150;4.466;2023-03-01T08:43:56;15.07;;;10.77;;
66272;SDS011;58450;52.150;4.466;2023-03-01T08:46:25;15.65;;;10.80;;
66272;SDS011;58450;52.150;4.466;2023-03-01T08:48:53;13.43;;;10.38;;
66272;SDS011;58450;52.150;4.466;2023-03-01T08:51:21;15.13;;;10.35;;
66272;SDS011;58450;52.150;4.466;2023-03-01T08:53:50;13.32;;;9.90;;
66272;SDS011;58450;52.150;4.466;2023-03-01T08:56:18;13.30;;;10.00;;
66272;SDS011;58450;52.150;4.466;2023-03-01T08:58:48;13.38;;;10.35;;
66272;SDS011;58450;52.150;4.466;2023-03-01T09:01:17;13.77;;;10.35;;
66272;SDS011;58450;52.150;4.466;2023-03-01T09:03:46;13.35;;;9.57;;
66272;SDS011;58450;52.150;4.466;2023-03-01T09:06:14;13.13;;;9.38;;
66272;SDS011;58450;52.150;4.466;2023-03-01T09:08:43;11.48;;;8.57;;
66272;SDS011;58450;52.150;4.466;2023-03-01T09:11:15;10.95;;;8.07;;
66272;SDS011;58450;52.150;4.466;2023-03-01T09:13:45;12.02;;;7.80;;
66272;SDS011;58450;52.150;4.466;2023-03-01T09:16:16;11.07;;;8.23;;
66272;SDS011;58450;52.150;4.466;2023-03-01T09:18:48;9.68;;;7.43;;
66272;SDS011;58450;52.150;4.466;2023-03-01T09:21:17;11.90;;;8.02;;
66272;SDS011;58450;52.150;4.466;2023-03-01T09:23:47;10.48;;;7.70;;
66272;SDS011;58450;52.150;4.466;2023-03-01T09:26:16;10.35;;;7.55;;
66272;SDS011;58450;52.150;4.466;2023-03-01T09:28:49;10.27;;;7.53;;
66272;SDS011;58450;52.150;4.466;2023-03-01T09:31:19;10.10;;;7.57;;
66272;SDS011;58450;52.150;4.466;2023-03-01T09:33:51;11.23;;;7.97;;
66272;SDS011;58450;52.150;4.466;2023-03-01T09:36:21;10.18;;;7.40;;
66272;SDS011;58450;52.150;4.466;2023-03-01T09:38:51;9.60;;;7.70;;
66272;SDS011;58450;52.150;4.466;2023-03-01T09:41:30;9.93;;;7.43;;
66272;SDS011;58450;52.150;4.466;2023-03-01T09:44:13;9.82;;;7.25;;
66272;SDS011;58450;52.150;4.466;2023-03-01T09:46:54;11.65;;;7.45;;
66272;SDS011;58450;52.150;4.466;2023-03-01T09:49:23;9.93;;;7.57;;
66272;SDS011;58450;52.150;4.466;2023-03-01T09:51:57;12.18;;;8.27;;
66272;SDS011;58450;52.150;4.466;2023-03-01T09:54:30;10.25;;;7.35;;
66272;SDS011;58450;52.150;4.466;2023-03-01T09:57:07;10.30;;;7.50;;
66272;SDS011;58450;52.150;4.466;2023-03-01T09:59:52;9.23;;;7.18;;
66272;SDS011;58450;52.150;4.466;2023-03-01T10:02:32;9.73;;;7.40;;
66272;SDS011;58450;52.150;4.466;2023-03-01T10:05:15;8.45;;;6.53;;
66272;SDS011;58450;52.150;4.466;2023-03-01T10:08:01;10.35;;;6.32;;
66272;SDS011;58450;52.150;4.466;2023-03-01T10:11:05;8.73;;;6.22;;
66272;SDS011;58450;52.150;4.466;2023-03-01T10:13:50;7.95;;;5.80;;
66272;SDS011;58450;52.150;4.466;2023-03-01T10:16:27;10.75;;;7.35;;
66272;SDS011;58450;52.150;4.466;2023-03-01T10:19:09;7.90;;;5.80;;
66272;SDS011;58450;52.150;4.466;2023-03-01T10:21:45;8.43;;;5.63;;
66272;SDS011;58450;52.150;4.466;2023-03-01T10:24:13;8.73;;;5.63;;
66272;SDS011;58450;52.150;4.466;2023-03-01T10:26:48;8.77;;;6.03;;
66272;SDS011;58450;52.150;4.466;2023-03-01T10:29:23;7.60;;;5.88;;
66272;SDS011;58450;52.150;4.466;2023-03-01T10:31:59;7.97;;;5.88;;
66272;SDS011;58450;52.150;4.466;2023-03-01T10:34:28;7.90;;;5.75;;
66272;SDS011;58450;52.150;4.466;2023-03-01T10:36:58;9.30;;;6.97;;
66272;SDS011;58450;52.150;4.466;2023-03-01T10:39:36;8.75;;;6.50;;
66272;SDS011;58450;52.150;4.466;2023-03-01T10:42:22;7.93;;;5.82;;
66272;SDS011;58450;52.150;4.466;2023-03-01T10:44:55;8.77;;;6.15;;
66272;SDS011;58450;52.150;4.466;2023-03-01T10:47:26;9.90;;;5.95;;
66272;SDS011;58450;52.150;4.466;2023-03-01T10:49:58;9.13;;;5.90;;
66272;SDS011;58450;52.150;4.466;2023-03-01T10:52:29;7.85;;;5.25;;
66272;SDS011;58450;52.150;4.466;2023-03-01T10:55:01;6.63;;;4.72;;
66272;SDS011;58450;52.150;4.466;2023-03-01T10:57:50;7.45;;;5.35;;
66272;SDS011;58450;52.150;4.466;2023-03-01T11:00:33;8.85;;;5.97;;
66272;SDS011;58450;52.150;4.466;2023-03-01T11:03:16;8.80;;;5.65;;
66272;SDS011;58450;52.150;4.466;2023-03-01T11:05:53;8.55;;;5.80;;
66272;SDS011;58450;52.150;4.466;2023-03-01T11:08:39;9.90;;;5.93;;
66272;SDS011;58450;52.150;4.466;2023-03-01T11:11:18;10.02;;;6.30;;
66272;SDS011;58450;52.150;4.466;2023-03-01T11:13:58;10.32;;;6.57;;
66272;SDS011;58450;52.150;4.466;2023-03-01T11:16:33;9.00;;;6.68;;
66272;SDS011;58450;52.150;4.466;2023-03-01T11:19:18;8.85;;;6.18;;
66272;SDS011;58450;52.150;4.466;2023-03-01T11:21:53;8.35;;;5.97;;
66272;SDS011;58450;52.150;4.466;2023-03-01T11:24:33;8.52;;;5.68;;
66272;SDS011;58450;52.150;4.466;2023-03-01T11:27:08;9.18;;;6.28;;
66272;SDS011;58450;52.150;4.466;2023-03-01T11:29:46;10.60;;;6.55;;
66272;SDS011;58450;52.150;4.466;2023-03-01T11:32:20;9.73;;;6.53;;
66272;SDS011;58450;52.150;4.466;2023-03-01T11:34:59;11.48;;;7.50;;
66272;SDS011;58450;52.150;4.466;2023-03-01T11:37:37;11.60;;;7.72;;
66272;SDS011;58450;52.150;4.466;2023-03-01T11:40:17;11.48;;;7.45;;
66272;SDS011;58450;52.150;4.466;2023-03-01T11:43:04;10.82;;;7.63;;
66272;SDS011;58450;52.150;4.466;2023-03-01T11:45:46;10.75;;;7.35;;
66272;SDS011;58450;52.150;4.466;2023-03-01T11:48:37;12.35;;;8.35;;
66272;SDS011;58450;52.150;4.466;2023-03-01T11:51:23;12.75;;;9.10;;
66272;SDS011;58450;52.150;4.466;2023-03-01T11:56:46;13.02;;;8.85;;
66272;SDS011;58450;52.150;4.466;2023-03-01T12:06:05;14.15;;;8.45;;
66272;SDS011;58450;52.150;4.466;2023-03-01T12:09:02;11.88;;;7.88;;
66272;SDS011;58450;52.150;4.466;2023-03-01T12:11:51;9.07;;;6.30;;
66272;SDS011;58450;52.150;4.466;2023-03-01T12:14:42;9.20;;;5.75;;
66272;SDS011;58450;52.150;4.466;2023-03-01T12:17:25;9.23;;;5.88;;
66272;SDS011;58450;52.150;4.466;2023-03-01T12:20:14;10.18;;;5.80;;
66272;SDS011;58450;52.150;4.466;2023-03-01T12:22:58;8.10;;;5.55;;
66272;SDS011;58450;52.150;4.466;2023-03-01T12:25:58;8.27;;;5.32;;
66272;SDS011;58450;52.150;4.466;2023-03-01T12:28:46;8.60;;;5.10;;
66272;SDS011;58450;52.150;4.466;2023-03-01T12:31:38;10.07;;;6.05;;
66272;SDS011;58450;52.150;4.466;2023-03-01T12:34:30;10.07;;;5.65;;
66272;SDS011;58450;52.150;4.466;2023-03-01T12:37:19;9.68;;;6.10;;
66272;SDS011;58450;52.150;4.466;2023-03-01T12:40:09;10.52;;;6.13;;
66272;SDS011;58450;52.150;4.466;2023-03-01T12:43:06;8.88;;;5.78;;
66272;SDS011;58450;52.150;4.466;2023-03-01T12:45:54;10.27;;;7.07;;
66272;SDS011;58450;52.150;4.466;2023-03-01T12:48:44;10.60;;;6.90;;
66272;SDS011;58450;52.150;4.466;2023-03-01T12:51:22;11.43;;;7.25;;
66272;SDS011;58450;52.150;4.466;2023-03-01T12:53:55;9.77;;;6.40;;
66272;SDS011;58450;52.150;4.466;2023-03-01T12:56:30;11.10;;;6.38;;
66272;SDS011;58450;52.150;4.466;2023-03-01T12:59:06;9.73;;;6.40;;
66272;SDS011;58450;52.150;4.466;2023-03-01T13:01:45;12.43;;;7.18;;
66272;SDS011;58450;52.150;4.466;2023-03-01T13:04:28;10.07;;;6.72;;
66272;SDS011;58450;52.150;4.466;2023-03-01T13:07:13;9.30;;;6.00;;
66272;SDS011;58450;52.150;4.466;2023-03-01T13:09:56;9.00;;;6.05;;
66272;SDS011;58450;52.150;4.466;2023-03-01T13:12:44;9.80;;;6.40;;
66272;SDS011;58450;52.150;4.466;2023-03-01T13:15:30;11.00;;;6.88;;
66272;SDS011;58450;52.150;4.466;2023-03-01T13:18:02;11.35;;;7.05;;
66272;SDS011;58450;52.150;4.466;2023-03-01T13:20:52;12.25;;;6.82;;
66272;SDS011;58450;52.150;4.466;2023-03-01T13:23:26;10.20;;;6.30;;
66272;SDS011;58450;52.150;4.466;2023-03-01T13:28:49;10.02;;;6.40;;
66272;SDS011;58450;52.150;4.466;2023-03-01T13:34:42;10.23;;;6.03;;
66272;SDS011;58450;52.150;4.466;2023-03-01T13:37:29;9.80;;;6.32;;
66272;SDS011;58450;52.150;4.466;2023-03-01T13:40:04;8.55;;;5.47;;
66272;SDS011;58450;52.150;4.466;2023-03-01T13:43:22;9.20;;;5.50;;
66272;SDS011;58450;52.150;4.466;2023-03-01T13:45:58;8.18;;;5.13;;
66272;SDS011;58450;52.150;4.466;2023-03-01T13:48:29;7.70;;;4.78;;
66272;SDS011;58450;52.150;4.466;2023-03-01T13:50:58;7.05;;;4.50;;
66272;SDS011;58450;52.150;4.466;2023-03-01T13:53:31;7.13;;;4.63;;
66272;SDS011;58450;52.150;4.466;2023-03-01T13:56:03;7.15;;;4.18;;
66272;SDS011;58450;52.150;4.466;2023-03-01T13:58:44;6.32;;;4.15;;
66272;SDS011;58450;52.150;4.466;2023-03-01T14:01:22;6.25;;;3.90;;
66272;SDS011;58450;52.150;4.466;2023-03-01T14:03:54;5.90;;;3.95;;
66272;SDS011;58450;52.150;4.466;2023-03-01T14:06:23;6.47;;;4.07;;
66272;SDS011;58450;52.150;4.466;2023-03-01T14:09:03;6.90;;;3.88;;
66272;SDS011;58450;52.150;4.466;2023-03-01T14:15:04;6.10;;;3.78;;
66272;SDS011;58450;52.150;4.466;2023-03-01T14:17:51;7.75;;;3.88;;
66272;SDS011;58450;52.150;4.466;2023-03-01T14:20:30;6.45;;;4.07;;
66272;SDS011;58450;52.150;4.466;2023-03-01T14:23:08;5.85;;;3.58;;
66272;SDS011;58450;52.150;4.466;2023-03-01T14:25:45;5.30;;;3.55;;
66272;SDS011;58450;52.150;4.466;2023-03-01T14:28:16;5.90;;;3.30;;
66272;SDS011;58450;52.150;4.466;2023-03-01T14:30:47;6.18;;;3.45;;
66272;SDS011;58450;52.150;4.466;2023-03-01T14:33:19;5.22;;;3.10;;
66272;SDS011;58450;52.150;4.466;2023-03-01T14:35:55;5.28;;;2.80;;
66272;SDS011;58450;52.150;4.466;2023-03-01T14:38:29;4.68;;;2.75;;
66272;SDS011;58450;52.150;4.466;2023-03-01T14:41:00;4.10;;;2.83;;
66272;SDS011;58450;52.150;4.466;2023-03-01T14:43:32;4.57;;;2.78;;
66272;SDS011;58450;52.150;4.466;2023-03-01T14:46:00;5.30;;;2.80;;
66272;SDS011;58450;52.150;4.466;2023-03-01T14:48:29;4.97;;;2.83;;
66272;SDS011;58450;52.150;4.466;2023-03-01T14:50:59;5.47;;;3.00;;
66272;SDS011;58450;52.150;4.466;2023-03-01T14:53:27;5.40;;;2.80;;
66272;SDS011;58450;52.150;4.466;2023-03-01T14:56:00;4.93;;;2.95;;
66272;SDS011;58450;52.150;4.466;2023-03-01T14:58:31;4.82;;;3.13;;
66272;SDS011;58450;52.150;4.466;2023-03-01T15:01:00;5.40;;;3.05;;
66272;SDS011;58450;52.150;4.466;2023-03-01T15:03:32;6.00;;;2.78;;
66272;SDS011;58450;52.150;4.466;2023-03-01T15:06:04;4.78;;;2.72;;
66272;SDS011;58450;52.150;4.466;2023-03-01T15:08:34;4.85;;;2.72;;
66272;SDS011;58450;52.150;4.466;2023-03-01T15:11:17;4.60;;;3.05;;
66272;SDS011;58450;52.150;4.466;2023-03-01T15:13:50;6.68;;;3.25;;
66272;SDS011;58450;52.150;4.466;2023-03-01T15:16:20;5.53;;;3.35;;
66272;SDS011;58450;52.150;4.466;2023-03-01T15:18:53;6.00;;;3.60;;
66272;SDS011;58450;52.150;4.466;2023-03-01T15:21:25;7.25;;;3.78;;
66272;SDS011;58450;52.150;4.466;2023-03-01T15:23:56;5.65;;;3.47;;
66272;SDS011;58450;52.150;4.466;2023-03-01T15:26:46;5.78;;;3.63;;
66272;SDS011;58450;52.150;4.466;2023-03-01T15:29:21;5.75;;;3.67;;
66272;SDS011;58450;52.150;4.466;2023-03-01T15:31:56;5.82;;;4.00;;